Time;durP1;ratioP1;P1;durP2;ratioP2;P2;SDS_P1;SDS_P2;PMS_P1;PMS_P2;Temp;Humidity;BMP_temperature;BMP_pressure;BME280_temperature;BME280_humidity;BME280_pressure;Samples;Min_cycle;Max_cycle;Signal;HPM_P1;HPM_P2
2023/05/28 00:00:08;;;;;;;5.93;4.80;;;12.60;12.30;;;;;;4998235;28;20430;-70
2023/05/28 00:02:34;;;;;;;8.57;4.63;;;12.60;12.50;;;;;;4997231;28;20242;-71
2023/05/28 00:05:00;;;;;;;7.63;4.77;;;12.50;12.90;;;;;;5015179;28;20436;-71
2023/05/28 00:07:28;;;;;;;13.03;5.53;;;12.50;13.30;;;;;;5014963;28;20181;-70
2023/05/28 00:09:54;;;;;;;7.97;5.10;;;12.50;13.00;;;;;;5015903;28;20423;-71
2023/05/28 00:12:20;;;;;;;6.63;4.67;;;12.40;13.30;;;;;;5014692;28;20451;-71
2023/05/28 00:14:46;;;;;;;12.33;5.47;;;12.30;13.90;;;;;;5014805;28;21088;-71
2023/05/28 00:17:12;;;;;;;8.23;5.17;;;12.30;14.30;;;;;;5015434;28;20172;-71
2023/05/28 00:19:38;;;;;;;7.90;4.70;;;12.20;15.00;;;;;;5015653;28;20517;-71
2023/05/28 00:22:03;;;;;;;9.17;4.47;;;12.20;15.20;;;;;;5015474;28;20712;-70
2023/05/28 00:24:29;;;;;;;6.57;4.87;;;12.10;15.50;;;;;;5015550;28;20267;-70
2023/05/28 00:26:55;;;;;;;9.63;5.13;;;12.20;15.30;;;;;;5015615;28;20238;-71
2023/05/28 00:29:20;;;;;;;7.60;4.37;;;12.20;15.10;;;;;;5016162;28;20175;-71
2023/05/28 00:31:46;;;;;;;8.80;5.27;;;12.10;15.50;;;;;;5015502;28;20590;-70
2023/05/28 00:34:11;;;;;;;9.93;4.67;;;12.00;15.40;;;;;;4996829;28;20216;-70
2023/05/28 00:36:37;;;;;;;9.00;6.67;;;12.00;16.80;;;;;;5015932;28;20235;-70
2023/05/28 00:39:04;;;;;;;8.60;6.20;;;11.90;17.50;;;;;;5015381;28;20262;-70
2023/05/28 00:41:30;;;;;;;10.17;5.10;;;11.90;17.60;;;;;;5016193;28;20266;-70
2023/05/28 00:43:56;;;;;;;10.03;6.67;;;11.80;17.50;;;;;;5015941;28;20470;-70
2023/05/28 00:46:23;;;;;;;13.03;6.50;;;11.70;18.40;;;;;;4998180;28;20773;-70
2023/05/28 00:48:50;;;;;;;9.93;5.37;;;11.70;18.70;;;;;;5017904;28;20187;-70
2023/05/28 00:51:17;;;;;;;10.10;6.93;;;11.70;18.70;;;;;;5019115;28;20435;-70
2023/05/28 00:53:43;;;;;;;12.63;6.53;;;11.70;19.40;;;;;;5001617;28;20865;-69
2023/05/28 00:56:10;;;;;;;8.67;6.40;;;11.80;19.00;;;;;;5019532;28;20466;-69
2023/05/28 00:58:42;;;;;;;8.70;5.53;;;11.80;19.30;;;;;;5019945;28;20344;-69
2023/05/28 01:01:09;;;;;;;7.87;5.40;;;11.70;19.20;;;;;;5019858;28;20445;-69
2023/05/28 01:03:39;;;;;;;10.90;6.97;;;11.70;19.50;;;;;;5019926;28;20415;-69
2023/05/28 01:06:11;;;;;;;8.10;6.20;;;11.60;19.40;;;;;;5019813;28;20465;-69
2023/05/28 01:08:37;;;;;;;7.27;5.70;;;11.60;20.60;;;;;;5020677;28;20419;-70
2023/05/28 01:11:04;;;;;;;9.93;6.30;;;11.60;19.80;;;;;;5020703;28;20525;-69
2023/05/28 01:13:31;;;;;;;7.67;6.27;;;11.50;20.70;;;;;;5021322;28;20418;-70
2023/05/28 01:15:59;;;;;;;8.73;6.03;;;11.50;20.50;;;;;;5020755;28;20617;-71
2023/05/28 01:18:25;;;;;;;8.77;5.70;;;11.50;20.60;;;;;;5020161;28;20454;-69
2023/05/28 01:20:51;;;;;;;6.43;4.83;;;11.50;20.80;;;;;;5019496;28;20809;-70
2023/05/28 01:23:20;;;;;;;10.10;5.10;;;11.40;21.50;;;;;;5020491;28;20429;-71
2023/05/28 01:25:50;;;;;;;8.00;5.27;;;11.40;21.40;;;;;;5019899;28;20208;-71
2023/05/28 01:28:16;;;;;;;12.13;6.70;;;11.40;20.80;;;;;;5020343;28;20554;-71
2023/05/28 01:30:43;;;;;;;9.63;5.13;;;11.30;21.30;;;;;;5019705;28;20418;-71
2023/05/28 01:33:11;;;;;;;10.23;6.00;;;11.30;21.20;;;;;;5018659;28;20429;-71
2023/05/28 01:35:37;;;;;;;7.37;4.20;;;11.30;22.10;;;;;;5029632;23;20861;-71
2023/05/28 01:38:04;;;;;;;11.30;4.50;;;11.20;21.50;;;;;;5035073;28;20411;-71
2023/05/28 01:40:31;;;;;;;7.03;5.37;;;11.10;21.50;;;;;;5017095;28;20439;-71
2023/05/28 01:42:57;;;;;;;9.33;4.83;;;11.00;22.30;;;;;;5016516;28;20460;-71
2023/05/28 01:45:25;;;;;;;7.47;5.30;;;11.00;22.30;;;;;;5019474;28;20808;-71
2023/05/28 01:47:51;;;;;;;7.30;5.07;;;11.00;22.20;;;;;;5014975;28;20891;-70
2023/05/28 01:50:17;;;;;;;9.13;6.20;;;11.00;22.00;;;;;;5014731;28;20414;-71
2023/05/28 01:52:44;;;;;;;13.47;6.47;;;11.00;22.20;;;;;;5014568;28;20425;-71
2023/05/28 01:55:11;;;;;;;6.93;5.00;;;10.90;23.10;;;;;;5013895;28;20711;-68
2023/05/28 01:57:40;;;;;;;8.33;6.23;;;10.90;23.80;;;;;;5014849;28;20478;-68
2023/05/28 02:00:06;;;;;;;11.63;5.80;;;10.90;23.20;;;;;;5013198;28;20449;-69
2023/05/28 02:02:32;;;;;;;9.67;6.30;;;10.90;23.90;;;;;;5014400;28;20759;-69
2023/05/28 02:04:58;;;;;;;15.20;5.67;;;10.80;24.70;;;;;;5015756;28;20457;-69
2023/05/28 02:07:24;;;;;;;13.83;5.80;;;10.70;25.20;;;;;;5015508;28;20457;-69
2023/05/28 02:09:50;;;;;;;9.10;5.43;;;10.70;25.20;;;;;;5013915;28;20191;-69
2023/05/28 02:12:15;;;;;;;14.07;7.80;;;10.70;25.40;;;;;;5014578;28;20789;-69
2023/05/28 02:14:42;;;;;;;12.87;6.70;;;10.70;27.00;;;;;;5012446;28;20211;-70
2023/05/28 02:17:09;;;;;;;9.90;5.83;;;10.60;27.10;;;;;;5014339;28;20548;-69
2023/05/28 02:19:35;;;;;;;6.13;4.33;;;10.50;27.20;;;;;;5014415;28;20783;-69
2023/05/28 02:22:01;;;;;;;12.93;7.63;;;10.40;26.10;;;;;;5013852;28;20470;-69
2023/05/28 02:24:26;;;;;;;7.33;5.47;;;10.40;26.30;;;;;;5013901;28;20451;-69
2023/05/28 02:26:52;;;;;;;11.50;6.03;;;10.40;26.50;;;;;;5014083;28;20179;-69
2023/05/28 02:29:17;;;;;;;8.30;5.53;;;10.30;26.90;;;;;;5013930;28;20214;-70
2023/05/28 02:31:43;;;;;;;8.47;5.40;;;10.30;26.90;;;;;;5013769;28;20187;-68
2023/05/28 02:34:09;;;;;;;9.53;6.37;;;10.30;26.90;;;;;;5013528;28;20247;-69
2023/05/28 02:36:35;;;;;;;12.90;6.70;;;10.20;28.10;;;;;;5012517;28;20673;-69
2023/05/28 02:39:02;;;;;;;10.77;6.00;;;10.20;27.80;;;;;;5013863;28;20259;-71
2023/05/28 02:41:27;;;;;;;11.53;6.77;;;10.10;27.30;;;;;;5013437;28;20898;-69
2023/05/28 02:43:53;;;;;;;6.63;5.10;;;10.00;28.40;;;;;;5013232;28;20479;-69
2023/05/28 02:46:19;;;;;;;10.67;6.10;;;10.00;27.20;;;;;;5013376;28;20191;-69
2023/05/28 02:48:45;;;;;;;9.90;6.50;;;9.90;27.40;;;;;;5013627;28;20196;-69
2023/05/28 02:51:11;;;;;;;11.80;7.07;;;10.00;27.80;;;;;;5013548;28;20587;-68
2023/05/28 02:53:36;;;;;;;7.80;5.67;;;9.90;29.70;;;;;;5013016;28;20425;-68
2023/05/28 02:56:02;;;;;;;8.40;5.70;;;9.90;29.40;;;;;;5013408;28;20542;-69
2023/05/28 02:58:32;;;;;;;11.23;6.73;;;9.80;31.00;;;;;;5013166;28;20186;-68
2023/05/28 03:00:57;;;;;;;8.57;5.27;;;9.80;30.50;;;;;;5013370;28;20653;-68
2023/05/28 03:03:23;;;;;;;11.03;5.97;;;9.80;30.40;;;;;;5012709;28;20517;-68
2023/05/28 03:05:50;;;;;;;7.70;5.40;;;9.80;31.30;;;;;;5013193;28;20205;-69
2023/05/28 03:08:16;;;;;;;8.90;5.83;;;9.70;31.50;;;;;;5011731;28;20186;-69
2023/05/28 03:10:41;;;;;;;9.67;6.43;;;9.70;30.00;;;;;;5012853;28;20418;-68
2023/05/28 03:13:08;;;;;;;7.53;5.63;;;9.70;30.20;;;;;;5012270;28;20289;-68
2023/05/28 03:15:33;;;;;;;10.93;5.40;;;9.70;29.70;;;;;;5012852;28;20238;-68
2023/05/28 03:17:59;;;;;;;8.53;5.60;;;9.70;30.40;;;;;;5013058;28;20532;-68
2023/05/28 03:20:25;;;;;;;10.90;5.47;;;9.60;30.50;;;;;;5011429;28;20786;-68
2023/05/28 03:22:56;;;;;;;9.30;5.40;;;9.60;31.50;;;;;;5012202;28;20254;-69
2023/05/28 03:25:22;;;;;;;8.27;5.63;;;9.60;31.50;;;;;;5013110;28;20428;-68
2023/05/28 03:27:47;;;;;;;7.90;4.90;;;9.60;31.30;;;;;;5012657;28;20441;-69
2023/05/28 03:30:14;;;;;;;6.77;5.00;;;9.50;31.50;;;;;;5012776;28;20259;-69
2023/05/28 03:32:40;;;;;;;7.27;4.77;;;9.50;30.80;;;;;;5012267;28;20182;-68
2023/05/28 03:35:06;;;;;;;11.10;5.00;;;9.50;31.80;;;;;;5012360;28;20528;-68
2023/05/28 03:37:31;;;;;;;8.33;6.03;;;9.50;31.50;;;;;;5012615;28;20422;-68
2023/05/28 03:39:57;;;;;;;8.83;5.70;;;9.50;30.90;;;;;;5012374;28;20450;-69
2023/05/28 03:42:22;;;;;;;11.20;5.67;;;9.60;30.30;;;;;;5012000;28;20179;-69
2023/05/28 03:44:48;;;;;;;6.37;4.43;;;9.50;30.30;;;;;;5012593;28;20195;-68
2023/05/28 03:47:14;;;;;;;9.10;4.53;;;9.60;31.20;;;;;;5013043;28;20179;-69
2023/05/28 03:49:39;;;;;;;6.27;5.60;;;9.60;30.50;;;;;;5012885;28;20190;-68
2023/05/28 03:52:05;;;;;;;8.73;5.73;;;9.60;30.50;;;;;;5011991;28;20176;-69
2023/05/28 03:54:32;;;;;;;8.73;5.13;;;9.60;31.50;;;;;;5012298;28;20277;-69
2023/05/28 03:56:57;;;;;;;10.63;4.70;;;9.60;31.20;;;;;;5012164;28;20518;-69
2023/05/28 03:59:23;;;;;;;8.10;5.43;;;9.70;29.80;;;;;;5012631;28;20422;-69
2023/05/28 04:01:49;;;;;;;9.47;5.70;;;9.70;30.00;;;;;;5010550;28;20184;-68
2023/05/28 04:04:15;;;;;;;7.50;5.57;;;9.70;29.30;;;;;;5012351;28;20198;-69
2023/05/28 04:06:41;;;;;;;9.90;5.43;;;9.70;28.70;;;;;;5012215;28;20696;-69
2023/05/28 04:09:08;;;;;;;9.00;5.13;;;9.70;30.00;;;;;;5012461;28;20445;-68
2023/05/28 04:11:37;;;;;;;9.47;4.93;;;9.70;29.90;;;;;;5011603;28;20441;-69
2023/05/28 04:14:03;;;;;;;9.10;5.93;;;9.80;29.50;;;;;;5010891;28;20426;-68
2023/05/28 04:16:28;;;;;;;7.67;4.00;;;9.90;29.40;;;;;;5012083;28;20495;-69
2023/05/28 04:18:54;;;;;;;8.03;6.10;;;9.90;28.30;;;;;;5011332;28;20498;-69
2023/05/28 04:21:20;;;;;;;8.63;4.47;;;10.00;26.70;;;;;;5012091;28;20171;-69
2023/05/28 04:23:46;;;;;;;7.60;5.53;;;10.10;26.80;;;;;;5011380;28;20422;-69
2023/05/28 04:26:12;;;;;;;7.03;4.60;;;10.20;25.80;;;;;;5012585;28;20453;-69
2023/05/28 04:28:38;;;;;;;7.50;4.63;;;10.20;25.40;;;;;;5012401;28;20489;-69
2023/05/28 04:31:06;;;;;;;7.70;5.77;;;10.30;25.70;;;;;;5010933;28;20525;-69
2023/05/28 04:33:32;;;;;;;7.00;4.40;;;10.30;26.90;;;;;;5011994;28;20411;-69
2023/05/28 04:35:59;;;;;;;9.23;5.13;;;10.40;25.60;;;;;;5011981;28;20600;-69
2023/05/28 04:38:28;;;;;;;10.23;5.07;;;10.50;23.60;;;;;;5010481;28;20712;-69
2023/05/28 04:40:54;;;;;;;6.13;4.83;;;10.70;23.10;;;;;;5011602;28;20502;-69
2023/05/28 04:43:21;;;;;;;7.07;4.20;;;10.70;23.20;;;;;;5011813;28;20418;-69
2023/05/28 04:45:47;;;;;;;8.93;4.43;;;10.80;21.90;;;;;;5011622;28;20454;-70
2023/05/28 04:48:12;;;;;;;8.07;3.93;;;10.90;21.70;;;;;;5011718;28;20426;-70
2023/05/28 04:50:39;;;;;;;7.20;3.90;;;11.00;21.40;;;;;;5011583;28;20423;-70
2023/05/28 04:53:04;;;;;;;7.30;4.90;;;11.10;19.30;;;;;;5011856;28;20614;-71
2023/05/28 04:55:30;;;;;;;5.70;4.20;;;11.30;19.60;;;;;;5011893;28;20508;-70
2023/05/28 04:57:55;;;;;;;6.90;3.73;;;11.40;19.30;;;;;;5011943;28;20234;-70
2023/05/28 05:00:23;;;;;;;5.73;4.40;;;11.50;19.40;;;;;;5011484;28;20184;-71
2023/05/28 05:02:49;;;;;;;6.63;4.20;;;11.60;16.90;;;;;;5011765;28;20168;-70
2023/05/28 05:05:16;;;;;;;6.97;4.60;;;11.80;17.20;;;;;;5011503;28;20443;-71
2023/05/28 05:07:41;;;;;;;7.47;5.13;;;11.90;16.30;;;;;;5011676;28;20461;-70
2023/05/28 05:10:09;;;;;;;7.77;4.60;;;12.10;15.50;;;;;;5010025;28;20817;-70
2023/05/28 05:12:34;;;;;;;9.10;4.47;;;12.20;14.20;;;;;;5011265;28;20669;-70
2023/05/28 05:15:00;;;;;;;8.13;5.23;;;12.20;14.60;;;;;;5011247;28;20466;-70
2023/05/28 05:17:26;;;;;;;8.23;5.43;;;12.30;14.80;;;;;;5011774;28;20184;-69
2023/05/28 05:19:52;;;;;;;10.67;5.80;;;12.40;15.10;;;;;;5011783;28;20283;-69
2023/05/28 05:22:17;;;;;;;7.20;5.40;;;12.60;15.10;;;;;;5011532;28;20442;-69
2023/05/28 05:24:45;;;;;;;9.50;6.67;;;12.70;14.90;;;;;;5011543;28;20458;-69
2023/05/28 05:27:11;;;;;;;16.33;6.50;;;12.90;14.50;;;;;;5011565;28;20172;-69
2023/05/28 05:29:36;;;;;;;10.50;6.47;;;13.10;15.00;;;;;;5011676;28;20911;-69
2023/05/28 05:32:02;;;;;;;10.13;5.83;;;14.00;12.40;;;;;;5011507;28;20551;-70
2023/05/28 05:34:28;;;;;;;9.33;5.50;;;15.20;9.60;;;;;;5012976;28;20218;-70
2023/05/28 05:36:53;;;;;;;8.13;5.87;;;16.20;7.50;;;;;;5015855;28;20217;-72
2023/05/28 05:39:19;;;;;;;7.40;5.60;;;17.40;4.50;;;;;;5014955;28;20852;-69
2023/05/28 05:41:44;;;;;;;7.93;6.00;;;18.50;1.60;;;;;;5014794;28;20180;-71
2023/05/28 05:44:10;;;;;;;7.47;5.70;;;19.00;1.00;;;;;;5015174;28;20168;-72
2023/05/28 05:46:35;;;;;;;6.80;5.23;;;18.60;1.00;;;;;;5014864;28;20262;-71
2023/05/28 05:49:01;;;;;;;9.03;6.00;;;18.80;1.00;;;;;;5014695;28;20649;-71
2023/05/28 05:51:27;;;;;;;7.67;6.77;;;20.00;1.00;;;;;;5014805;28;20234;-71
2023/05/28 05:53:52;;;;;;;9.23;7.00;;;21.10;1.00;;;;;;5013246;28;20616;-71
2023/05/28 05:56:18;;;;;;;16.13;6.53;;;22.30;1.00;;;;;;5013321;28;20306;-71
2023/05/28 05:58:43;;;;;;;7.83;6.60;;;23.50;1.00;;;;;;5014526;28;20179;-71
2023/05/28 06:01:09;;;;;;;10.50;7.40;;;24.50;1.00;;;;;;5014830;28;20305;-73
2023/05/28 06:03:35;;;;;;;12.33;7.97;;;25.60;1.00;;;;;;5014412;28;20259;-71
2023/05/28 06:06:01;;;;;;;8.20;7.30;;;26.20;1.00;;;;;;5014777;28;20518;-71
2023/05/28 06:08:27;;;;;;;16.63;8.10;;;27.50;1.00;;;;;;5014504;28;20172;-72
2023/05/28 06:10:52;;;;;;;10.80;7.80;;;28.60;1.00;;;;;;5014271;28;20179;-73
2023/05/28 06:13:18;;;;;;;7.70;7.07;;;29.10;1.00;;;;;;5014239;28;20418;-72
2023/05/28 06:15:44;;;;;;;11.30;6.83;;;29.90;1.00;;;;;;5014429;28;20219;-72
2023/05/28 06:18:11;;;;;;;11.13;7.27;;;30.80;1.00;;;;;;5014522;28;20172;-72
2023/05/28 06:20:37;;;;;;;13.37;8.13;;;31.40;1.00;;;;;;5013876;28;20533;-71
2023/05/28 06:23:03;;;;;;;8.57;6.60;;;31.60;1.00;;;;;;5014027;28;20631;-72
2023/05/28 06:25:29;;;;;;;6.20;5.60;;;31.20;1.00;;;;;;5004924;28;20546;-71
2023/05/28 06:27:54;;;;;;;6.50;5.90;;;30.10;1.00;;;;;;5008509;28;20492;-71
2023/05/28 06:30:20;;;;;;;7.63;6.70;;;29.30;1.00;;;;;;5003669;28;20208;-69
2023/05/28 06:32:45;;;;;;;7.43;6.37;;;30.30;1.00;;;;;;5009180;28;20181;-69
2023/05/28 06:35:11;;;;;;;9.50;7.50;;;30.60;1.00;;;;;;4994553;28;20216;-69
2023/05/28 06:37:37;;;;;;;7.00;6.10;;;30.70;1.00;;;;;;4994500;28;20181;-70
2023/05/28 06:40:06;;;;;;;8.43;7.17;;;30.90;1.00;;;;;;5010296;28;20645;-69
2023/05/28 06:42:32;;;;;;;8.00;6.80;;;32.40;1.00;;;;;;5014670;28;20175;-70
2023/05/28 06:44:59;;;;;;;7.10;6.60;;;31.80;1.00;;;;;;5016029;28;20442;-69
2023/05/28 06:47:25;;;;;;;7.73;6.87;;;31.40;1.00;;;;;;5013892;28;20786;-70
2023/05/28 06:49:51;;;;;;;8.33;7.40;;;31.50;1.00;;;;;;5013776;28;20518;-70
2023/05/28 06:52:16;;;;;;;8.00;7.17;;;32.00;1.00;;;;;;5014641;28;20415;-68
2023/05/28 06:54:42;;;;;;;8.50;7.70;;;31.80;1.00;;;;;;5014065;28;20570;-69
2023/05/28 06:57:07;;;;;;;7.90;7.07;;;32.90;1.00;;;;;;5013156;28;20677;-70
2023/05/28 06:59:33;;;;;;;8.27;5.93;;;33.70;1.00;;;;;;5014298;28;20527;-70
2023/05/28 07:01:58;;;;;;;8.80;6.60;;;33.30;1.00;;;;;;5014453;28;20214;-71
2023/05/28 07:04:24;;;;;;;6.60;5.90;;;33.40;1.00;;;;;;5014443;28;20207;-70
2023/05/28 07:06:50;;;;;;;7.20;6.50;;;33.60;1.00;;;;;;5013168;28;20649;-71
2023/05/28 07:09:15;;;;;;;8.17;7.23;;;33.50;1.00;;;;;;5013542;28;20207;-71
2023/05/28 07:11:41;;;;;;;10.93;8.47;;;32.80;1.00;;;;;;5013073;28;20259;-70
2023/05/28 07:14:06;;;;;;;8.57;6.27;;;33.30;1.00;;;;;;5012224;28;20184;-70
2023/05/28 07:16:32;;;;;;;10.23;6.70;;;33.80;1.00;;;;;;5013187;28;20206;-70
2023/05/28 07:18:57;;;;;;;7.73;7.00;;;34.80;1.00;;;;;;5009281;28;20298;-70
2023/05/28 07:21:23;;;;;;;8.23;6.67;;;34.60;1.00;;;;;;4992528;28;20260;-70
2023/05/28 07:23:48;;;;;;;8.67;7.83;;;33.90;1.00;;;;;;4993641;28;20248;-70
2023/05/28 07:26:14;;;;;;;7.80;6.67;;;33.50;1.00;;;;;;4993839;28;20235;-71
2023/05/28 07:28:40;;;;;;;7.57;6.47;;;33.20;1.00;;;;;;5010863;28;20840;-71
2023/05/28 07:31:06;;;;;;;7.00;6.37;;;33.10;1.00;;;;;;5013238;28;20207;-70
2023/05/28 07:33:31;;;;;;;7.67;6.87;;;32.60;1.00;;;;;;5012817;28;20184;-70
2023/05/28 07:35:57;;;;;;;10.20;6.00;;;32.90;1.00;;;;;;5022651;22;20534;-69
2023/05/28 07:38:23;;;;;;;10.13;7.20;;;33.40;1.00;;;;;;5008732;28;20700;-69
2023/05/28 07:40:50;;;;;;;6.73;6.13;;;34.20;1.00;;;;;;5012915;28;20175;-69
2023/05/28 07:43:15;;;;;;;7.47;6.77;;;34.70;1.00;;;;;;5012363;28;20657;-69
2023/05/28 07:45:41;;;;;;;5.47;5.07;;;34.60;1.00;;;;;;5012820;28;20430;-69
2023/05/28 07:48:06;;;;;;;8.60;7.30;;;33.90;1.00;;;;;;4999123;28;20212;-70
2023/05/28 07:50:32;;;;;;;8.00;6.80;;;33.60;1.00;;;;;;4993063;28;20181;-70
2023/05/28 07:52:58;;;;;;;9.80;6.57;;;33.40;1.00;;;;;;4975336;28;20212;-70
2023/05/28 07:55:23;;;;;;;9.03;6.40;;;33.10;1.00;;;;;;4992756;28;20502;-69
2023/05/28 07:57:49;;;;;;;9.07;6.40;;;33.50;1.00;;;;;;5002748;28;20218;-71
2023/05/28 08:00:18;;;;;;;7.00;6.33;;;33.20;1.00;;;;;;5012268;28;20829;-70
2023/05/28 08:02:44;;;;;;;6.80;6.20;;;33.70;1.00;;;;;;5012240;28;20187;-69
2023/05/28 08:05:10;;;;;;;6.77;6.07;;;34.10;1.00;;;;;;4994684;28;20439;-69
2023/05/28 08:07:36;;;;;;;5.83;5.33;;;34.60;1.00;;;;;;5004367;28;20439;-69
2023/05/28 08:10:03;;;;;;;6.80;6.30;;;34.70;1.00;;;;;;4992817;28;20172;-69
2023/05/28 08:12:28;;;;;;;8.20;7.03;;;34.60;1.00;;;;;;4992604;28;20173;-70
2023/05/28 08:14:54;;;;;;;8.10;7.00;;;34.90;1.00;;;;;;4992580;28;21035;-69
2023/05/28 08:17:22;;;;;;;7.37;6.60;;;34.30;1.00;;;;;;4998935;28;20649;-69
2023/05/28 08:19:49;;;;;;;10.70;7.40;;;34.60;1.00;;;;;;5000065;28;20557;-69
2023/05/28 08:22:14;;;;;;;7.10;6.50;;;34.90;1.00;;;;;;4991903;28;20443;-69
2023/05/28 08:24:40;;;;;;;7.10;6.50;;;35.40;1.00;;;;;;4992757;28;20933;-69
2023/05/28 08:27:06;;;;;;;7.20;6.50;;;35.90;1.00;;;;;;4997007;28;20188;-70
2023/05/28 08:29:32;;;;;;;7.73;7.00;;;34.90;1.00;;;;;;4998942;28;20622;-70
2023/05/28 08:31:58;;;;;;;7.20;6.50;;;34.20;1.00;;;;;;4992495;28;20523;-70
2023/05/28 08:34:24;;;;;;;7.30;6.60;;;33.90;1.00;;;;;;4975157;28;20186;-70
2023/05/28 08:36:50;;;;;;;7.73;6.43;;;35.00;1.00;;;;;;4992514;28;20663;-70
2023/05/28 08:39:16;;;;;;;10.40;6.50;;;35.80;1.00;;;;;;5004581;28;20450;-70
2023/05/28 08:41:43;;;;;;;8.13;6.13;;;35.80;1.00;;;;;;5011834;28;20642;-70
2023/05/28 08:44:08;;;;;;;7.47;6.73;;;34.60;1.00;;;;;;5011992;28;20861;-69
2023/05/28 08:46:36;;;;;;;7.93;6.50;;;33.70;1.00;;;;;;5012231;28;20443;-70
2023/05/28 08:49:02;;;;;;;7.37;6.60;;;33.90;1.00;;;;;;5000261;28;20199;-70
2023/05/28 08:51:33;;;;;;;7.70;7.00;;;33.70;1.00;;;;;;4992251;28;20513;-69
2023/05/28 08:54:00;;;;;;;7.50;6.77;;;33.90;1.00;;;;;;4992427;28;20431;-68
2023/05/28 08:56:26;;;;;;;7.37;6.33;;;33.80;1.00;;;;;;4992151;28;20478;-68
2023/05/28 08:58:52;;;;;;;7.83;7.13;;;33.90;1.00;;;;;;5001895;28;20438;-72
2023/05/28 09:01:17;;;;;;;7.83;6.47;;;33.50;1.00;;;;;;5011890;28;20407;-69
2023/05/28 09:03:43;;;;;;;7.47;6.87;;;34.00;1.00;;;;;;5011201;28;20214;-69
2023/05/28 09:06:09;;;;;;;10.20;6.40;;;34.20;1.00;;;;;;5011572;28;20200;-69
2023/05/28 09:08:35;;;;;;;8.83;7.63;;;32.10;1.00;;;;;;5004906;28;20428;-69
2023/05/28 09:11:12;;;;;;;6.80;6.03;;;31.10;1.00;;;;;;4996111;28;20176;-69
2023/05/28 09:13:45;;;;;;;7.50;6.73;;;29.30;1.00;;;;;;4995717;28;20180;-69
2023/05/28 09:16:12;;;;;;;8.07;7.03;;;27.50;1.00;;;;;;4996232;28;20469;-69
2023/05/28 09:18:37;;;;;;;8.60;6.10;;;25.90;1.00;;;;;;5002636;28;20433;-70
2023/05/28 09:21:12;;;;;;;6.90;6.20;;;24.70;1.00;;;;;;4997066;28;20849;-69
2023/05/28 09:23:44;;;;;;;6.30;5.70;;;23.70;1.00;;;;;;4996455;28;20176;-70
2023/05/28 09:26:09;;;;;;;8.80;6.67;;;23.30;1.00;;;;;;4996844;28;20438;-69
2023/05/28 09:28:35;;;;;;;8.17;5.97;;;23.20;1.00;;;;;;5004482;28;20434;-69
2023/05/28 09:31:05;;;;;;;8.33;6.53;;;23.20;1.00;;;;;;5016635;28;20195;-69
2023/05/28 09:33:32;;;;;;;6.53;5.93;;;23.10;1.00;;;;;;5015375;28;20415;-70
2023/05/28 09:36:02;;;;;;;7.70;7.10;;;22.90;1.00;;;;;;5015869;28;20474;-70
2023/05/28 09:38:41;;;;;;;8.87;6.90;;;22.70;1.00;;;;;;5010018;28;21072;-70
2023/05/28 09:41:33;;;;;;;8.50;7.43;;;22.50;1.00;;;;;;4996711;28;20502;-71
2023/05/28 09:44:05;;;;;;;9.77;7.00;;;22.70;1.00;;;;;;4995993;28;20440;-71
2023/05/28 09:46:35;;;;;;;7.13;6.47;;;22.70;1.00;;;;;;5016246;28;20816;-71
2023/05/28 09:49:01;;;;;;;7.20;5.93;;;22.80;1.00;;;;;;5015579;28;20435;-71
2023/05/28 09:51:29;;;;;;;9.17;7.03;;;22.90;1.00;;;;;;5015940;28;20450;-71
2023/05/28 09:54:00;;;;;;;7.23;5.87;;;23.00;1.00;;;;;;5015606;28;20501;-71
2023/05/28 09:56:31;;;;;;;7.87;6.63;;;23.00;1.00;;;;;;5015922;28;20470;-71
2023/05/28 09:58:58;;;;;;;18.03;7.20;;;23.00;1.00;;;;;;5005883;28;20936;-72
2023/05/28 10:01:26;;;;;;;9.00;6.73;;;23.00;1.00;;;;;;4996386;28;20412;-71
2023/05/28 10:04:10;;;;;;;7.63;6.93;;;23.10;1.00;;;;;;4995976;28;20432;-71
2023/05/28 10:06:38;;;;;;;7.07;6.37;;;23.20;1.00;;;;;;4996141;28;20416;-71
2023/05/28 10:09:05;;;;;;;12.10;6.40;;;23.10;1.00;;;;;;4978827;28;20924;-71
2023/05/28 10:11:39;;;;;;;7.27;6.10;;;23.10;1.00;;;;;;4994490;28;20791;-68
2023/05/28 10:14:05;;;;;;;10.70;6.30;;;23.30;1.00;;;;;;5016342;28;20410;-68
2023/05/28 10:16:32;;;;;;;7.80;7.03;;;23.30;1.00;;;;;;4994358;28;20463;-69
2023/05/28 10:18:57;;;;;;;7.77;6.33;;;23.40;1.00;;;;;;4998199;28;20210;-69
2023/05/28 10:21:25;;;;;;;6.60;5.80;;;23.50;1.00;;;;;;4994873;28;20428;-70
2023/05/28 10:23:52;;;;;;;13.33;6.40;;;23.70;1.00;;;;;;4995074;28;20216;-69
2023/05/28 10:26:18;;;;;;;7.93;5.80;;;23.90;1.00;;;;;;4995918;28;20456;-70
2023/05/28 10:28:44;;;;;;;6.80;5.80;;;23.90;1.00;;;;;;4997023;28;20542;-70
2023/05/28 10:31:10;;;;;;;7.20;6.27;;;23.90;1.00;;;;;;4998198;28;20945;-69
2023/05/28 10:33:41;;;;;;;5.80;5.30;;;24.10;1.00;;;;;;4963031;28;20184;-70
2023/05/28 10:36:11;;;;;;;7.70;6.43;;;24.40;1.00;;;;;;4996595;28;20836;-70
2023/05/28 10:38:44;;;;;;;8.60;6.63;;;24.50;1.00;;;;;;5004169;28;20434;-70
2023/05/28 10:41:10;;;;;;;8.50;6.57;;;24.20;1.00;;;;;;5015867;28;20422;-69
2023/05/28 10:43:39;;;;;;;6.00;5.40;;;24.10;1.00;;;;;;5015877;28;20497;-70
2023/05/28 10:46:14;;;;;;;6.70;6.00;;;24.10;1.00;;;;;;4997793;28;20435;-69
2023/05/28 10:48:41;;;;;;;7.00;6.33;;;24.10;1.00;;;;;;5006610;28;20423;-66
2023/05/28 10:51:07;;;;;;;6.40;5.80;;;24.10;1.00;;;;;;4977542;28;20455;-69
2023/05/28 10:53:33;;;;;;;5.73;5.20;;;24.10;1.00;;;;;;4994368;28;20423;-68
2023/05/28 10:56:00;;;;;;;5.70;5.30;;;24.20;1.00;;;;;;4985904;28;20472;-71
2023/05/28 10:58:33;;;;;;;13.47;5.97;;;24.10;1.00;;;;;;4974557;28;20247;-71
2023/05/28 11:01:11;;;;;;;6.07;5.53;;;24.20;1.00;;;;;;4982681;28;20437;-71
2023/05/28 11:03:45;;;;;;;6.17;5.67;;;24.20;1.00;;;;;;4978686;28;20432;-68
2023/05/28 11:06:11;;;;;;;6.67;6.07;;;24.00;1.00;;;;;;4974563;28;20997;-71
2023/05/28 11:08:48;;;;;;;7.50;5.27;;;24.10;1.00;;;;;;4980581;28;20438;-71
2023/05/28 11:11:15;;;;;;;6.50;5.90;;;24.10;1.00;;;;;;5013911;28;20407;-71
2023/05/28 11:13:46;;;;;;;10.30;6.20;;;24.30;1.00;;;;;;5013525;28;20904;-71
2023/05/28 11:16:14;;;;;;;5.60;5.10;;;24.30;1.00;;;;;;5013183;28;20459;-71
2023/05/28 11:18:58;;;;;;;8.03;5.93;;;24.50;1.00;;;;;;5006821;28;20955;-71
2023/05/28 11:21:24;;;;;;;6.63;5.90;;;24.70;1.00;;;;;;4989146;28;20459;-71
2023/05/28 11:24:03;;;;;;;6.93;5.90;;;24.80;1.00;;;;;;4993767;28;20450;-71
2023/05/28 11:26:30;;;;;;;10.30;6.37;;;24.90;1.00;;;;;;4994101;28;20199;-71
2023/05/28 11:28:55;;;;;;;6.80;5.43;;;24.90;1.00;;;;;;4993798;28;20431;-71
2023/05/28 11:31:21;;;;;;;6.20;5.70;;;24.90;1.00;;;;;;4988255;28;20435;-71
2023/05/28 11:33:50;;;;;;;6.70;6.00;;;25.00;1.00;;;;;;5013068;28;20515;-71
2023/05/28 11:36:17;;;;;;;6.17;5.53;;;25.00;1.00;;;;;;5012925;28;20218;-71
2023/05/28 11:38:43;;;;;;;6.67;5.90;;;25.00;1.00;;;;;;5013773;28;20415;-71
2023/05/28 11:41:08;;;;;;;6.10;5.57;;;24.90;1.00;;;;;;5013049;28;20493;-71
2023/05/28 11:43:34;;;;;;;12.07;6.70;;;24.90;1.00;;;;;;4996205;28;20212;-71
2023/05/28 11:46:01;;;;;;;6.10;5.60;;;24.90;1.00;;;;;;4993154;28;20208;-71
2023/05/28 11:48:27;;;;;;;5.67;5.27;;;24.70;1.00;;;;;;4993455;28;20231;-71
2023/05/28 11:51:00;;;;;;;5.40;5.00;;;24.70;1.00;;;;;;4993421;28;20944;-71
2023/05/28 11:53:41;;;;;;;9.33;5.60;;;24.60;1.00;;;;;;4993124;28;20751;-71
2023/05/28 11:56:08;;;;;;;7.43;5.00;;;24.80;1.00;;;;;;4994466;28;20473;-71
2023/05/28 11:58:37;;;;;;;5.80;5.20;;;25.00;1.00;;;;;;4973593;28;20417;-71
2023/05/28 12:01:03;;;;;;;7.70;5.37;;;25.30;1.00;;;;;;4956178;28;20421;-71
2023/05/28 12:03:28;;;;;;;6.80;6.20;;;25.20;1.00;;;;;;4973479;28;20435;-71
2023/05/28 12:05:54;;;;;;;5.93;5.43;;;25.30;1.00;;;;;;4980496;28;20450;-71
2023/05/28 12:08:19;;;;;;;8.20;6.07;;;25.30;1.00;;;;;;5010949;28;20275;-71
2023/05/28 12:10:45;;;;;;;7.27;6.13;;;25.50;1.00;;;;;;4995155;28;20259;-71
2023/05/28 12:13:12;;;;;;;6.00;5.27;;;25.50;1.00;;;;;;5012697;28;20176;-69
2023/05/28 12:15:38;;;;;;;6.57;5.17;;;25.50;1.00;;;;;;5012425;28;20199;-69
2023/05/28 12:18:04;;;;;;;6.07;5.47;;;25.40;1.00;;;;;;4980813;28;20436;-68
2023/05/28 12:20:32;;;;;;;7.13;6.43;;;25.40;1.00;;;;;;4992852;28;20251;-68
2023/05/28 12:23:12;;;;;;;6.10;5.57;;;25.50;1.00;;;;;;4992432;28;20412;-69
2023/05/28 12:25:43;;;;;;;6.17;5.67;;;25.40;1.00;;;;;;4992701;28;20506;-68
2023/05/28 12:28:10;;;;;;;6.80;5.90;;;25.30;1.00;;;;;;4992691;28;20422;-69
2023/05/28 12:30:38;;;;;;;8.93;4.93;;;25.40;1.00;;;;;;4991722;28;20959;-69
2023/05/28 12:33:03;;;;;;;6.50;5.20;;;25.50;1.00;;;;;;5012168;28;20769;-68
2023/05/28 12:35:29;;;;;;;7.40;5.37;;;25.50;1.00;;;;;;5011828;28;20481;-69
2023/05/28 12:37:55;;;;;;;5.70;5.30;;;25.60;1.00;;;;;;4994516;28;20650;-69
2023/05/28 12:40:20;;;;;;;5.57;5.07;;;25.60;1.00;;;;;;4994492;28;20180;-70
2023/05/28 12:42:46;;;;;;;7.13;6.43;;;25.60;1.00;;;;;;4992064;28;20190;-69
2023/05/28 12:45:11;;;;;;;7.73;6.00;;;25.60;1.00;;;;;;5017762;28;20196;-69
2023/05/28 12:47:37;;;;;;;7.90;5.67;;;25.50;1.00;;;;;;5001219;28;20478;-69
2023/05/28 12:50:03;;;;;;;6.17;5.57;;;25.60;1.00;;;;;;5014622;28;20180;-71